Time;durP1;ratioP1;P1;durP2;ratioP2;P2;SDS_P1;SDS_P2;PMS_P1;PMS_P2;Temp;Humidity;BMP_temperature;BMP_pressure;BME280_temperature;BME280_humidity;BME280_pressure;Samples;Min_cycle;Max_cycle;Signal;HPM_P1;HPM_P2
2021/07/21 00:01:32;;;;;;;11.10;6.23;;;15.40;99.80;;;;;;6083042;23;20531;-85
2021/07/21 00:04:00;;;;;;;7.93;5.13;;;15.40;99.80;;;;;;6115393;23;20516;-86
2021/07/21 00:06:48;;;;;;;7.63;5.83;;;15.40;99.80;;;;;;6113545;23;20440;-86
2021/07/21 00:09:16;;;;;;;9.77;5.90;;;15.50;99.80;;;;;;6102923;23;20443;-87
2021/07/21 00:14:31;;;;;;;6.33;5.23;;;15.50;99.80;;;;;;6094224;23;20440;-85
2021/07/21 00:17:02;;;;;;;10.10;6.07;;;15.50;99.80;;;;;;6086929;23;20440;-86
2021/07/21 00:22:17;;;;;;;6.77;5.07;;;15.50;99.80;;;;;;6106925;23;20430;-85
2021/07/21 00:24:45;;;;;;;11.03;5.67;;;15.60;99.80;;;;;;6098613;23;20445;-85
2021/07/21 00:27:14;;;;;;;6.10;5.03;;;15.60;99.80;;;;;;6111917;23;20439;-84
2021/07/21 00:29:43;;;;;;;6.07;4.90;;;15.60;99.80;;;;;;6112065;23;20440;-86
2021/07/21 00:32:11;;;;;;;8.27;5.37;;;15.50;99.80;;;;;;6110879;23;20837;-86
2021/07/21 00:34:40;;;;;;;8.50;5.70;;;15.50;99.80;;;;;;6108139;23;20993;-86
2021/07/21 00:37:08;;;;;;;6.77;5.10;;;15.50;99.80;;;;;;6101612;23;20437;-84
2021/07/21 00:39:36;;;;;;;7.43;5.33;;;15.50;99.80;;;;;;6110070;23;20440;-84
2021/07/21 00:42:05;;;;;;;6.30;5.23;;;15.50;99.80;;;;;;6109166;23;20449;-85
2021/07/21 00:44:33;;;;;;;6.77;5.20;;;15.50;99.80;;;;;;6099825;23;20500;-85
2021/07/21 00:47:02;;;;;;;5.30;4.80;;;15.50;99.80;;;;;;6111422;23;20442;-84
2021/07/21 00:49:30;;;;;;;12.27;5.30;;;15.50;99.80;;;;;;6117694;23;20975;-85
2021/07/21 00:51:59;;;;;;;8.30;5.20;;;15.40;99.80;;;;;;6114703;23;20449;-87
2021/07/21 00:54:27;;;;;;;6.10;4.67;;;15.40;99.80;;;;;;6107186;23;20440;-86
2021/07/21 00:56:55;;;;;;;7.70;4.87;;;15.40;99.80;;;;;;6111395;23;20445;-85
2021/07/21 00:59:24;;;;;;;8.33;6.13;;;15.40;99.80;;;;;;6090049;23;20440;-87
2021/07/21 01:01:52;;;;;;;6.73;5.63;;;15.30;99.80;;;;;;6098409;23;20447;-83
2021/07/21 01:04:21;;;;;;;6.60;5.37;;;15.30;99.80;;;;;;6102071;23;20489;-85
2021/07/21 01:06:50;;;;;;;6.57;4.83;;;15.30;99.80;;;;;;6102842;23;20440;-86
2021/07/21 01:09:18;;;;;;;5.70;4.30;;;15.20;99.80;;;;;;6108395;23;20440;-86
2021/07/21 01:11:52;;;;;;;7.27;5.50;;;15.20;99.80;;;;;;6109577;23;20447;-86
2021/07/21 01:14:28;;;;;;;6.73;4.93;;;15.10;99.80;;;;;;6110352;23;20446;-86
2021/07/21 01:16:59;;;;;;;9.80;5.43;;;15.10;99.80;;;;;;6107948;23;20513;-85
2021/07/21 01:19:43;;;;;;;8.77;5.50;;;;;;;;;;6113390;23;20504;-86
2021/07/21 01:22:16;;;;;;;9.00;5.50;;;15.10;99.80;;;;;;6115263;23;20903;-85
2021/07/21 01:24:58;;;;;;;7.20;5.77;;;15.10;99.80;;;;;;6103225;23;20502;-86
2021/07/21 01:27:30;;;;;;;12.33;5.73;;;;;;;;;;6096720;23;20972;-86
2021/07/21 01:30:06;;;;;;;5.97;4.67;;;15.10;99.80;;;;;;6109770;23;20436;-86
2021/07/21 01:32:38;;;;;;;5.30;4.67;;;15.10;99.80;;;;;;6105807;23;20435;-86
2021/07/21 01:35:08;;;;;;;8.30;5.50;;;;;;;;;;6106252;23;21233;-86
2021/07/21 01:37:39;;;;;;;7.27;4.63;;;15.10;99.80;;;;;;6112409;23;20443;-86
2021/07/21 01:40:13;;;;;;;6.50;4.17;;;15.10;99.80;;;;;;6106400;23;20435;-86
2021/07/21 01:42:43;;;;;;;6.20;4.90;;;15.10;99.80;;;;;;6107723;23;20448;-86
2021/07/21 01:45:12;;;;;;;7.73;5.47;;;15.10;99.80;;;;;;6105275;23;20446;-86
2021/07/21 01:47:43;;;;;;;6.00;5.00;;;15.10;99.80;;;;;;6102715;23;20443;-86
2021/07/21 01:50:12;;;;;;;5.97;4.73;;;15.10;99.80;;;;;;6116734;23;20986;-86
2021/07/21 01:52:41;;;;;;;6.87;4.93;;;15.10;99.80;;;;;;6114541;23;20448;-86
2021/07/21 01:55:11;;;;;;;12.33;5.00;;;15.10;99.80;;;;;;6100757;23;20856;-86
2021/07/21 01:57:40;;;;;;;7.40;4.97;;;15.00;99.80;;;;;;6095551;23;20442;-86
2021/07/21 02:00:12;;;;;;;6.60;5.20;;;15.00;99.80;;;;;;6089543;23;20457;-87
2021/07/21 02:02:44;;;;;;;7.80;5.27;;;15.00;99.80;;;;;;6121114;23;20426;-86
2021/07/21 02:05:14;;;;;;;10.73;4.83;;;15.00;99.80;;;;;;6124958;23;20537;-87
2021/07/21 02:07:45;;;;;;;6.80;5.17;;;14.90;99.80;;;;;;6122746;23;20480;-86
2021/07/21 02:10:16;;;;;;;8.80;5.00;;;14.90;99.80;;;;;;6122840;23;21039;-85
2021/07/21 02:12:45;;;;;;;5.50;4.60;;;14.90;99.80;;;;;;6120011;23;20383;-86
2021/07/21 02:15:15;;;;;;;11.63;5.43;;;14.90;99.80;;;;;;6123274;23;20785;-86
2021/07/21 02:17:44;;;;;;;5.80;5.20;;;14.90;99.80;;;;;;6122104;23;20495;-86
2021/07/21 02:20:13;;;;;;;6.43;5.00;;;14.80;99.80;;;;;;6122224;23;20421;-86
2021/07/21 02:22:43;;;;;;;6.30;4.63;;;14.80;99.80;;;;;;6123122;23;20445;-86
2021/07/21 02:25:12;;;;;;;6.10;4.50;;;14.80;99.80;;;;;;6085579;23;20467;-86
2021/07/21 02:27:41;;;;;;;8.70;5.17;;;14.80;99.80;;;;;;6119758;23;20442;-86
2021/07/21 02:30:11;;;;;;;6.13;4.87;;;;;;;;;;6120314;23;20937;-87
2021/07/21 02:32:47;;;;;;;6.97;4.93;;;14.80;99.80;;;;;;6120171;23;20440;-86
2021/07/21 02:35:19;;;;;;;7.20;5.23;;;14.80;99.80;;;;;;6118745;23;20449;-86
2021/07/21 02:37:47;;;;;;;6.00;4.93;;;14.70;99.80;;;;;;6115365;23;20931;-87
2021/07/21 02:40:16;;;;;;;6.10;4.77;;;14.70;99.80;;;;;;6113746;23;20439;-87
2021/07/21 02:42:44;;;;;;;6.57;4.50;;;14.70;99.80;;;;;;6114930;23;20443;-86
2021/07/21 02:45:13;;;;;;;6.47;4.30;;;14.70;99.80;;;;;;6115593;23;20445;-86
2021/07/21 02:47:43;;;;;;;6.93;5.23;;;14.70;99.80;;;;;;6105131;23;20443;-86
2021/07/21 02:50:12;;;;;;;9.77;6.07;;;14.70;99.80;;;;;;6110177;23;20469;-87
2021/07/21 02:52:47;;;;;;;9.10;6.47;;;14.70;99.80;;;;;;6114589;23;20759;-86
2021/07/21 02:55:19;;;;;;;7.93;6.30;;;14.60;99.80;;;;;;6114245;23;20435;-86
2021/07/21 02:57:50;;;;;;;7.03;5.67;;;14.40;99.80;;;;;;6066022;23;20431;-86
2021/07/21 03:00:20;;;;;;;8.10;5.57;;;14.10;99.80;;;;;;6086422;23;20449;-86
2021/07/21 03:02:53;;;;;;;6.17;5.57;;;14.10;99.80;;;;;;6094897;23;20986;-86
2021/07/21 03:05:26;;;;;;;10.67;5.50;;;14.00;99.80;;;;;;6114740;23;20970;-86
2021/07/21 03:07:59;;;;;;;10.80;5.60;;;14.00;99.80;;;;;;6108478;23;20501;-86
2021/07/21 03:10:28;;;;;;;9.53;5.37;;;14.00;99.80;;;;;;6103991;23;20773;-86
2021/07/21 03:13:02;;;;;;;6.83;5.60;;;;;;;;;;6108842;23;20459;-85
2021/07/21 03:15:34;;;;;;;6.90;5.17;;;;;;;;;;6096949;23;20441;-85
2021/07/21 03:18:05;;;;;;;6.90;5.07;;;14.20;99.80;;;;;;6112706;23;20438;-85
2021/07/21 03:20:33;;;;;;;8.33;5.53;;;14.20;99.80;;;;;;6117415;23;20430;-85
2021/07/21 03:23:02;;;;;;;7.30;5.30;;;14.20;99.80;;;;;;6115402;23;20442;-86
2021/07/21 03:25:34;;;;;;;7.97;5.60;;;14.20;99.80;;;;;;6116688;23;20470;-86
2021/07/21 03:28:05;;;;;;;7.03;6.00;;;14.20;99.80;;;;;;6107542;23;20445;-85
2021/07/21 03:30:34;;;;;;;6.97;5.33;;;14.20;99.80;;;;;;6110048;23;20434;-86
2021/07/21 03:33:06;;;;;;;7.97;5.90;;;14.20;99.80;;;;;;6112527;23;20431;-85
2021/07/21 03:35:35;;;;;;;8.33;5.03;;;14.20;99.80;;;;;;6109949;23;20450;-85
2021/07/21 03:38:05;;;;;;;13.30;5.10;;;14.20;99.80;;;;;;6111073;23;20462;-85
2021/07/21 03:40:33;;;;;;;8.20;5.13;;;;;;;;;;6097827;23;20422;-85
2021/07/21 03:43:01;;;;;;;7.40;5.90;;;14.20;99.80;;;;;;6110816;23;20443;-85
2021/07/21 03:45:31;;;;;;;8.67;6.50;;;14.10;99.80;;;;;;6109448;23;20446;-85
2021/07/21 03:48:02;;;;;;;6.70;5.20;;;;;;;;;;6103419;23;20977;-85
2021/07/21 03:50:32;;;;;;;9.60;6.17;;;14.30;99.80;;;;;;6110926;23;20435;-85
2021/07/21 03:53:01;;;;;;;10.10;6.60;;;14.30;99.80;;;;;;6105536;23;20453;-85
2021/07/21 03:55:31;;;;;;;7.87;5.50;;;;;;;;;;6098226;23;20446;-85
2021/07/21 03:57:59;;;;;;;13.03;6.87;;;14.40;99.80;;;;;;6108253;23;20459;-85
2021/07/21 04:00:27;;;;;;;9.03;6.23;;;14.40;99.80;;;;;;6086748;23;20447;-84
2021/07/21 04:02:57;;;;;;;6.87;5.70;;;14.30;99.80;;;;;;6069603;23;20952;-85
2021/07/21 04:05:27;;;;;;;8.70;6.30;;;14.30;99.80;;;;;;6116328;23;20441;-85
2021/07/21 04:07:57;;;;;;;9.10;5.93;;;14.30;99.80;;;;;;6115687;23;20438;-84
2021/07/21 04:10:29;;;;;;;8.77;6.10;;;14.30;99.80;;;;;;6093045;23;20438;-83
2021/07/21 04:13:02;;;;;;;12.30;6.50;;;14.30;99.80;;;;;;6099007;23;20438;-83
2021/07/21 04:15:31;;;;;;;6.97;5.83;;;14.30;99.80;;;;;;6092883;23;21183;-83
2021/07/21 04:18:00;;;;;;;7.60;6.33;;;14.30;99.80;;;;;;6103995;23;20497;-84
2021/07/21 04:20:29;;;;;;;7.03;5.57;;;14.30;99.80;;;;;;6074509;23;20942;-84
2021/07/21 04:22:59;;;;;;;9.53;6.60;;;14.30;99.80;;;;;;6089787;23;20451;-83
2021/07/21 04:25:28;;;;;;;7.37;6.10;;;14.30;99.80;;;;;;6088756;23;20443;-83
2021/07/21 04:27:58;;;;;;;17.07;6.23;;;14.30;99.80;;;;;;6107833;23;20439;-83
2021/07/21 04:30:29;;;;;;;8.50;5.67;;;14.30;99.80;;;;;;6111158;23;20445;-84
2021/07/21 04:32:58;;;;;;;8.03;6.40;;;14.30;99.80;;;;;;6113622;23;20445;-84
2021/07/21 04:35:28;;;;;;;9.27;5.80;;;14.30;99.80;;;;;;6111889;23;21179;-84
2021/07/21 04:37:58;;;;;;;10.10;6.77;;;14.30;99.80;;;;;;6116001;23;20452;-83
2021/07/21 04:40:27;;;;;;;10.10;6.00;;;14.30;99.80;;;;;;6108239;23;20447;-84
2021/07/21 04:42:55;;;;;;;7.20;6.37;;;14.30;99.80;;;;;;6103447;23;20433;-83
2021/07/21 04:45:23;;;;;;;11.37;6.60;;;14.30;99.80;;;;;;6107731;23;20785;-83
2021/07/21 04:47:53;;;;;;;10.97;7.20;;;14.30;99.80;;;;;;6105859;23;20451;-83
2021/07/21 04:50:23;;;;;;;10.00;7.20;;;14.30;99.80;;;;;;6109229;23;20774;-83
2021/07/21 04:52:51;;;;;;;9.53;6.10;;;14.20;99.80;;;;;;6097404;23;20443;-83
2021/07/21 04:55:21;;;;;;;8.47;6.00;;;14.20;99.80;;;;;;6089709;23;20551;-83
2021/07/21 04:57:49;;;;;;;9.90;6.13;;;14.30;99.80;;;;;;6106185;23;20989;-84
2021/07/21 05:00:18;;;;;;;8.90;7.13;;;14.30;99.80;;;;;;6094626;23;20445;-83
2021/07/21 05:02:46;;;;;;;10.10;6.87;;;14.20;99.80;;;;;;6069058;23;20441;-83
2021/07/21 05:05:14;;;;;;;7.30;6.43;;;14.20;99.80;;;;;;6114981;23;20447;-84
2021/07/21 05:07:42;;;;;;;7.77;6.27;;;14.20;99.80;;;;;;6109269;23;20435;-82
2021/07/21 05:10:11;;;;;;;8.50;6.70;;;14.20;99.80;;;;;;6116933;23;20445;-84
2021/07/21 05:12:44;;;;;;;9.63;7.00;;;14.20;99.80;;;;;;6110921;23;20787;-84
2021/07/21 05:15:12;;;;;;;14.03;8.40;;;14.20;99.80;;;;;;6103088;23;20452;-84
2021/07/21 05:17:40;;;;;;;11.13;6.50;;;14.20;99.80;;;;;;6112155;23;20439;-83
2021/07/21 05:20:09;;;;;;;9.63;7.10;;;14.30;99.80;;;;;;6115982;23;20923;-84
2021/07/21 05:22:37;;;;;;;12.43;6.53;;;14.30;99.80;;;;;;6100093;23;20451;-84
2021/07/21 05:25:06;;;;;;;9.87;7.23;;;14.30;99.80;;;;;;6104218;23;20510;-84
2021/07/21 05:27:34;;;;;;;11.97;7.83;;;14.40;99.80;;;;;;6107615;23;20435;-84
2021/07/21 05:30:04;;;;;;;10.70;7.40;;;14.40;99.80;;;;;;6103650;23;20815;-84
2021/07/21 05:32:32;;;;;;;11.10;6.30;;;14.40;99.80;;;;;;6108157;23;20443;-84
2021/07/21 05:34:59;;;;;;;11.70;7.03;;;14.50;99.80;;;;;;6103346;23;20443;-84
2021/07/21 05:37:28;;;;;;;10.20;6.87;;;14.50;99.80;;;;;;6107758;23;20954;-83
2021/07/21 05:39:56;;;;;;;10.33;7.10;;;14.60;99.80;;;;;;6106494;23;20487;-83
2021/07/21 05:42:24;;;;;;;10.07;6.60;;;14.60;99.80;;;;;;6100648;23;20443;-83
2021/07/21 05:44:52;;;;;;;10.97;6.30;;;14.60;99.80;;;;;;6106487;23;20550;-84
2021/07/21 05:47:21;;;;;;;10.80;6.87;;;14.70;99.80;;;;;;6090090;23;20443;-84
2021/07/21 05:49:49;;;;;;;11.80;6.90;;;14.70;99.80;;;;;;6115960;23;20443;-84
2021/07/21 05:52:18;;;;;;;13.43;7.40;;;14.80;99.80;;;;;;6115738;23;20974;-84
2021/07/21 05:54:46;;;;;;;11.00;6.93;;;14.90;99.80;;;;;;6109381;23;20442;-84
2021/07/21 05:57:14;;;;;;;12.50;6.60;;;14.90;99.80;;;;;;6089987;23;20446;-83
2021/07/21 05:59:42;;;;;;;7.50;6.43;;;14.90;99.80;;;;;;6098366;23;20438;-83
2021/07/21 06:02:10;;;;;;;11.27;7.87;;;15.00;99.80;;;;;;6098912;23;20447;-83
2021/07/21 06:04:41;;;;;;;8.93;6.20;;;15.00;99.80;;;;;;6104487;23;20443;-84
2021/07/21 06:07:09;;;;;;;9.57;5.83;;;15.00;99.80;;;;;;6105220;23;20522;-84
2021/07/21 06:09:37;;;;;;;13.80;7.07;;;15.10;99.80;;;;;;6109367;23;20459;-83
2021/07/21 06:12:06;;;;;;;13.27;6.33;;;15.10;99.80;;;;;;6107870;23;20538;-84
2021/07/21 06:14:34;;;;;;;9.60;6.23;;;15.20;99.80;;;;;;6086222;23;20447;-84
2021/07/21 06:17:04;;;;;;;9.87;7.00;;;15.30;99.80;;;;;;6083469;23;20476;-83
2021/07/21 06:19:34;;;;;;;10.40;6.40;;;15.40;99.80;;;;;;6115394;23;20456;-83
2021/07/21 06:22:04;;;;;;;11.60;6.97;;;15.40;99.80;;;;;;6117566;23;20944;-84
2021/07/21 06:24:32;;;;;;;8.40;6.33;;;15.50;99.80;;;;;;6115199;23;20443;-83
2021/07/21 06:27:02;;;;;;;8.20;5.70;;;15.60;99.80;;;;;;6104008;23;20437;-84
2021/07/21 06:29:30;;;;;;;8.10;6.03;;;15.70;99.80;;;;;;6097308;23;20437;-86
2021/07/21 06:31:58;;;;;;;10.17;6.33;;;15.80;99.80;;;;;;6076562;23;21196;-87
2021/07/21 06:34:26;;;;;;;6.53;5.80;;;15.90;99.80;;;;;;6114379;23;20455;-86
2021/07/21 06:36:54;;;;;;;7.10;5.87;;;16.00;99.80;;;;;;6111756;23;21243;-86
2021/07/21 06:39:24;;;;;;;6.00;5.40;;;16.10;99.80;;;;;;6101859;23;21316;-87
2021/07/21 06:41:53;;;;;;;8.13;5.93;;;16.30;99.80;;;;;;6083970;23;20440;-87
2021/07/21 06:44:22;;;;;;;8.60;5.97;;;16.30;99.80;;;;;;6093795;23;20834;-87
2021/07/21 06:46:50;;;;;;;7.97;5.80;;;16.40;99.80;;;;;;6104459;23;20438;-87
2021/07/21 06:49:18;;;;;;;10.40;6.70;;;16.50;99.80;;;;;;6117849;23;20446;-87
2021/07/21 06:51:46;;;;;;;5.93;5.03;;;16.60;99.80;;;;;;6115575;23;20530;-87
2021/07/21 06:54:15;;;;;;;6.73;5.53;;;;;;;;;;6116769;23;20785;-86
2021/07/21 06:56:44;;;;;;;14.87;5.53;;;16.80;99.80;;;;;;6117297;23;20437;-85
2021/07/21 06:59:12;;;;;;;6.17;5.30;;;16.90;99.80;;;;;;6088768;23;20441;-86
2021/07/21 07:01:40;;;;;;;7.13;5.40;;;17.00;99.80;;;;;;6101396;23;20468;-85
2021/07/21 07:04:08;;;;;;;7.80;6.03;;;17.10;99.80;;;;;;6116051;23;20450;-86
2021/07/21 07:06:37;;;;;;;8.40;5.63;;;17.20;99.80;;;;;;6115572;23;20990;-86
2021/07/21 07:09:07;;;;;;;5.57;5.07;;;17.30;99.80;;;;;;6094038;23;20529;-86
2021/07/21 07:11:35;;;;;;;5.73;5.03;;;17.40;99.80;;;;;;6087450;23;20500;-86
2021/07/21 07:14:05;;;;;;;6.93;5.83;;;17.60;99.80;;;;;;6086823;23;20442;-86
2021/07/21 07:16:34;;;;;;;6.70;5.30;;;17.70;99.80;;;;;;6070105;23;20446;-85
2021/07/21 07:19:03;;;;;;;8.57;6.13;;;17.80;99.80;;;;;;6091440;23;20771;-85
2021/07/21 07:21:31;;;;;;;5.37;4.87;;;17.90;99.80;;;;;;6090118;23;20444;-85
2021/07/21 07:23:59;;;;;;;7.07;5.50;;;18.00;99.80;;;;;;6102542;23;20512;-86
2021/07/21 07:26:27;;;;;;;6.73;4.87;;;18.10;99.80;;;;;;6094500;23;20442;-86
2021/07/21 07:28:56;;;;;;;5.20;4.70;;;18.20;99.80;;;;;;6098914;23;20441;-86
2021/07/21 07:31:26;;;;;;;5.10;4.60;;;18.30;99.80;;;;;;6102298;23;20521;-85
2021/07/21 18:15:48;;;;;;;11.70;5.20;;;27.00;69.30;;;;;;6063858;23;20498;-85
2021/07/21 18:18:16;;;;;;;7.23;4.60;;;25.90;72.30;;;;;;6119399;23;20514;-85
2021/07/21 18:21:04;;;;;;;8.27;5.10;;;25.30;74.30;;;;;;6118933;23;20781;-85
2021/07/21 18:23:34;;;;;;;11.00;4.60;;;24.80;76.80;;;;;;6110694;23;20439;-85
2021/07/21 18:26:02;;;;;;;8.10;4.43;;;24.50;78.10;;;;;;6103894;23;20441;-85
2021/07/21 18:28:31;;;;;;;10.80;5.50;;;24.30;79.20;;;;;;6104653;23;20434;-85
2021/07/21 18:31:01;;;;;;;9.47;4.73;;;24.10;79.50;;;;;;6077125;23;20449;-85
2021/07/21 18:33:29;;;;;;;6.53;4.83;;;23.90;79.90;;;;;;6099570;23;20450;-84
2021/07/21 18:35:57;;;;;;;6.50;4.20;;;23.70;80.60;;;;;;6102384;23;20443;-85
2021/07/21 18:38:26;;;;;;;5.67;5.07;;;23.60;81.00;;;;;;6092969;23;20981;-84
2021/07/21 18:40:54;;;;;;;13.03;4.50;;;23.50;81.50;;;;;;6093925;23;20450;-84
2021/07/21 18:43:23;;;;;;;5.93;4.70;;;23.30;81.90;;;;;;6099440;23;20442;-84
2021/07/21 18:45:51;;;;;;;8.43;4.90;;;23.30;82.50;;;;;;6102674;23;20438;-85
2021/07/21 18:48:21;;;;;;;8.37;5.23;;;23.10;82.90;;;;;;6103504;23;20446;-85
2021/07/21 18:50:49;;;;;;;19.03;4.97;;;23.00;83.00;;;;;;6089337;23;20501;-86
2021/07/21 18:53:17;;;;;;;7.33;4.90;;;22.90;83.20;;;;;;6101015;23;20434;-85
2021/07/21 18:55:46;;;;;;;4.50;3.97;;;22.80;83.20;;;;;;6103274;23;20462;-84
2021/07/21 18:58:14;;;;;;;5.90;4.17;;;22.70;83.70;;;;;;6093814;23;20443;-84
2021/07/21 19:00:42;;;;;;;5.13;4.40;;;22.60;83.40;;;;;;6094652;23;20435;-86
2021/07/21 19:03:10;;;;;;;6.03;3.93;;;22.50;83.70;;;;;;6112921;23;20435;-85
2021/07/21 19:05:40;;;;;;;5.07;4.27;;;22.40;84.10;;;;;;6101409;23;20451;-84
2021/07/21 19:08:08;;;;;;;5.03;4.37;;;22.30;84.60;;;;;;6105748;23;20777;-85
2021/07/21 19:10:36;;;;;;;6.07;4.27;;;22.20;84.90;;;;;;6109374;23;20441;-86
2021/07/21 19:13:04;;;;;;;4.90;4.40;;;22.10;84.70;;;;;;6103875;23;20466;-85
2021/07/21 19:15:52;;;;;;;4.70;4.20;;;22.00;85.30;;;;;;6104543;23;20441;-85
2021/07/21 19:18:20;;;;;;;5.33;4.27;;;21.90;84.90;;;;;;6113779;23;20439;-85
2021/07/21 19:20:50;;;;;;;4.33;3.90;;;21.90;85.10;;;;;;6115548;23;20439;-84
2021/07/21 19:23:18;;;;;;;5.70;3.97;;;21.80;85.20;;;;;;6110408;23;20431;-85
2021/07/21 19:25:46;;;;;;;5.93;3.97;;;21.80;85.60;;;;;;6109629;23;20443;-84
2021/07/21 19:28:14;;;;;;;15.30;4.37;;;21.70;85.90;;;;;;6105422;23;20445;-84
2021/07/21 19:30:42;;;;;;;5.93;4.20;;;21.60;86.00;;;;;;6090672;23;20497;-85
2021/07/21 19:33:11;;;;;;;5.37;4.53;;;21.60;86.50;;;;;;6114167;23;20449;-85
2021/07/21 19:35:39;;;;;;;5.10;3.90;;;21.50;86.70;;;;;;6103824;23;20518;-85
2021/07/21 19:38:08;;;;;;;4.73;3.80;;;21.40;86.60;;;;;;6098437;23;20485;-85
2021/07/21 19:40:36;;;;;;;4.77;3.87;;;21.40;87.10;;;;;;6098093;23;20445;-86
2021/07/21 19:43:04;;;;;;;4.83;3.90;;;21.40;87.50;;;;;;6107606;23;20445;-87
2021/07/21 19:45:32;;;;;;;8.13;4.37;;;21.30;87.10;;;;;;6091546;23;20533;-87
2021/07/21 19:48:00;;;;;;;3.83;3.40;;;21.20;87.20;;;;;;6109435;23;20440;-90
2021/07/21 19:50:32;;;;;;;5.90;3.93;;;21.20;87.20;;;;;;6124075;23;20435;-90
2021/07/21 19:53:00;;;;;;;6.43;4.33;;;21.20;87.60;;;;;;6116854;23;20443;-87
2021/07/21 19:55:30;;;;;;;13.43;4.13;;;21.20;87.60;;;;;;6112079;23;20449;-89
2021/07/21 19:57:58;;;;;;;4.93;4.00;;;21.10;87.50;;;;;;6099654;23;20436;-88
2021/07/21 20:00:26;;;;;;;10.07;4.40;;;21.10;87.10;;;;;;6086335;23;20445;-87
2021/07/21 20:02:54;;;;;;;8.87;4.50;;;21.10;87.30;;;;;;6121041;23;20451;-87
2021/07/21 20:05:22;;;;;;;5.00;4.00;;;21.10;87.70;;;;;;6115463;23;20451;-87
2021/07/21 20:07:50;;;;;;;5.20;3.67;;;21.10;87.20;;;;;;6101893;23;20443;-88
2021/07/21 20:10:18;;;;;;;4.20;3.80;;;21.00;87.30;;;;;;6081721;23;21768;-88
2021/07/21 20:12:48;;;;;;;5.90;4.13;;;21.00;87.60;;;;;;6093812;23;20434;-87
2021/07/21 20:15:16;;;;;;;5.43;4.10;;;20.90;87.60;;;;;;6099770;23;20447;-87
2021/07/21 20:17:44;;;;;;;5.33;4.83;;;20.90;87.90;;;;;;6106962;23;20445;-87
2021/07/21 20:20:13;;;;;;;5.40;4.40;;;20.80;87.80;;;;;;6106720;23;20435;-88
2021/07/21 20:22:41;;;;;;;4.73;4.33;;;20.80;87.90;;;;;;6101071;23;20435;-88
2021/07/21 20:25:10;;;;;;;8.80;4.03;;;20.80;88.00;;;;;;6107266;23;20451;-87
2021/07/21 20:27:38;;;;;;;4.87;4.00;;;20.80;88.10;;;;;;6102245;23;20955;-87
2021/07/21 20:30:09;;;;;;;7.27;4.30;;;20.80;87.60;;;;;;6101331;23;20963;-87
2021/07/21 20:32:38;;;;;;;5.60;4.70;;;20.70;88.60;;;;;;6105583;23;20430;-88
2021/07/21 20:35:06;;;;;;;16.80;6.87;;;20.70;89.50;;;;;;6117192;23;20451;-88
2021/07/21 20:37:34;;;;;;;7.27;5.03;;;20.60;90.20;;;;;;6117152;23;20443;-87
2021/07/21 20:40:04;;;;;;;12.33;4.83;;;20.40;90.70;;;;;;6110808;23;20514;-87
2021/07/21 20:42:32;;;;;;;12.47;4.53;;;20.30;91.20;;;;;;6107882;23;20749;-88
2021/07/21 20:45:00;;;;;;;12.00;5.33;;;20.20;91.40;;;;;;6109420;23;20443;-87
2021/07/21 20:47:29;;;;;;;10.47;6.00;;;;;;;;;;6105748;23;20442;-87
2021/07/21 20:49:58;;;;;;;6.87;4.13;;;;;;;;;;6105696;23;20435;-88
2021/07/21 20:52:26;;;;;;;6.93;5.43;;;19.90;93.40;;;;;;6107386;23;20435;-88
2021/07/21 20:54:54;;;;;;;6.63;3.87;;;19.90;92.20;;;;;;6105815;23;20447;-87
2021/07/21 20:57:22;;;;;;;9.17;4.73;;;19.80;92.50;;;;;;6111692;23;20955;-88
2021/07/21 20:59:51;;;;;;;13.13;5.40;;;19.80;92.90;;;;;;6100316;23;20973;-88
2021/07/21 21:02:23;;;;;;;13.93;5.70;;;19.70;94.90;;;;;;6087101;23;21969;-87
2021/07/21 21:04:53;;;;;;;14.77;5.70;;;19.60;95.80;;;;;;6114977;23;20499;-87
2021/07/21 21:07:21;;;;;;;7.37;4.33;;;19.40;96.40;;;;;;6111702;23;20445;-87
2021/07/21 21:09:49;;;;;;;13.43;4.30;;;19.40;96.10;;;;;;6114704;23;20431;-87
2021/07/21 21:12:17;;;;;;;5.50;4.50;;;19.40;95.70;;;;;;6103870;23;20445;-87
2021/07/21 21:14:45;;;;;;;9.07;5.17;;;19.40;94.70;;;;;;6102692;23;20443;-87
2021/07/21 21:17:14;;;;;;;6.03;4.90;;;;;;;;;;6111596;23;20441;-87
2021/07/21 21:19:43;;;;;;;5.30;4.70;;;19.40;95.20;;;;;;6117892;23;20494;-88
2021/07/21 21:22:12;;;;;;;5.40;4.50;;;19.40;95.40;;;;;;6100708;23;20431;-87
2021/07/21 21:24:40;;;;;;;5.03;4.30;;;19.30;95.70;;;;;;6107673;23;20513;-87
2021/07/21 21:27:08;;;;;;;5.40;4.37;;;19.30;97.00;;;;;;6107393;23;21118;-87
2021/07/21 21:29:36;;;;;;;6.63;4.40;;;19.20;97.90;;;;;;6103335;23;20473;-87
2021/07/21 21:32:05;;;;;;;8.27;5.00;;;19.10;98.40;;;;;;6104654;23;20438;-87
2021/07/21 21:34:38;;;;;;;7.30;4.23;;;18.90;98.60;;;;;;6115740;23;20778;-87
2021/07/21 21:37:10;;;;;;;8.97;5.20;;;18.80;99.20;;;;;;6113115;23;20445;-88
2021/07/21 21:39:40;;;;;;;7.70;5.10;;;18.70;99.80;;;;;;6113849;23;20490;-88
2021/07/21 21:42:09;;;;;;;7.83;5.10;;;18.60;99.80;;;;;;6110524;23;20435;-89
2021/07/21 21:44:37;;;;;;;18.50;6.10;;;18.50;99.80;;;;;;6103137;23;20439;-88
2021/07/21 21:47:05;;;;;;;10.93;5.50;;;18.50;99.80;;;;;;6104902;23;20449;-88
2021/07/21 21:49:33;;;;;;;15.10;5.93;;;18.40;99.80;;;;;;6111814;23;20438;-89
2021/07/21 21:52:01;;;;;;;8.83;5.80;;;18.30;99.80;;;;;;6101749;23;20443;-88
2021/07/21 21:54:29;;;;;;;7.23;5.47;;;18.20;99.80;;;;;;6102867;23;20447;-90
2021/07/21 21:57:00;;;;;;;8.50;5.40;;;18.20;99.80;;;;;;6097416;23;20510;-89
2021/07/21 21:59:27;;;;;;;7.53;5.10;;;18.10;99.80;;;;;;6096521;23;20895;-89
2021/07/21 22:01:56;;;;;;;7.70;5.07;;;;;;;;;;6095992;23;20445;-88
2021/07/21 22:04:33;;;;;;;9.40;5.80;;;18.10;99.80;;;;;;6092396;23;20457;-87
2021/07/21 22:07:01;;;;;;;6.67;5.07;;;18.10;99.80;;;;;;6088615;23;20450;-86
2021/07/21 22:09:29;;;;;;;16.17;5.90;;;18.00;99.80;;;;;;6073961;23;20525;-85
2021/07/21 22:11:59;;;;;;;10.63;6.70;;;18.00;99.80;;;;;;6085449;23;20453;-87
2021/07/21 22:14:27;;;;;;;10.63;5.57;;;18.00;99.80;;;;;;6097323;23;20483;-87
2021/07/21 22:16:55;;;;;;;9.10;5.97;;;18.00;99.80;;;;;;6101246;23;20457;-87
2021/07/21 22:19:23;;;;;;;8.70;5.30;;;18.00;99.80;;;;;;6113767;23;21037;-88
2021/07/21 22:21:53;;;;;;;9.33;5.30;;;18.00;99.80;;;;;;6109370;23;21036;-87
2021/07/21 22:28:09;;;;;;;6.30;4.97;;;18.00;99.80;;;;;;6106590;23;20508;-87
2021/07/21 22:30:42;;;;;;;9.90;4.80;;;18.00;99.80;;;;;;6106729;23;20430;-88
2021/07/21 22:33:11;;;;;;;6.40;5.03;;;18.00;99.80;;;;;;6107041;23;20474;-87
2021/07/21 22:35:39;;;;;;;10.20;4.90;;;18.00;99.80;;;;;;6095343;23;20549;-87
2021/07/21 22:38:07;;;;;;;7.83;5.27;;;18.00;99.80;;;;;;6105953;23;20446;-85
2021/07/21 22:40:35;;;;;;;6.20;4.57;;;18.10;99.80;;;;;;6110403;23;20434;-84
2021/07/21 22:43:08;;;;;;;5.50;4.37;;;18.10;99.80;;;;;;6106597;23;20443;-85
2021/07/21 22:45:36;;;;;;;7.40;4.00;;;18.20;99.80;;;;;;6108858;23;20473;-85
2021/07/21 22:48:05;;;;;;;8.17;4.70;;;18.20;99.80;;;;;;6109495;23;20524;-85
2021/07/21 22:50:34;;;;;;;6.03;4.33;;;18.10;99.80;;;;;;6114267;23;20819;-85
2021/07/21 22:53:04;;;;;;;7.53;4.87;;;18.10;99.80;;;;;;6115241;23;20852;-85
2021/07/21 22:55:34;;;;;;;8.07;5.03;;;18.10;99.80;;;;;;6095626;23;20441;-85
2021/07/21 22:58:05;;;;;;;7.80;5.80;;;18.10;99.80;;;;;;6103363;23;20498;-85
2021/07/21 23:00:43;;;;;;;5.87;4.53;;;18.00;99.80;;;;;;6087251;23;20440;-85
2021/07/21 23:03:48;;;;;;;7.00;5.20;;;18.00;99.80;;;;;;6099499;23;20438;-85
2021/07/21 23:06:55;;;;;;;7.83;5.70;;;17.90;99.80;;;;;;6109050;23;20441;-85
2021/07/21 23:10:00;;;;;;;8.07;4.87;;;17.90;99.80;;;;;;6109626;23;20451;-85
2021/07/21 23:13:05;;;;;;;8.43;4.47;;;17.80;99.80;;;;;;6095710;23;20497;-85
2021/07/21 23:15:51;;;;;;;8.17;5.00;;;17.80;99.80;;;;;;6097828;23;20442;-85
2021/07/21 23:18:19;;;;;;;8.20;5.17;;;17.80;99.80;;;;;;6105853;23;20449;-85
2021/07/21 23:20:49;;;;;;;6.17;5.03;;;17.70;99.80;;;;;;6112656;23;20443;-85
2021/07/21 23:23:18;;;;;;;9.70;5.10;;;17.70;99.80;;;;;;6113638;23;20446;-85
2021/07/21 23:25:47;;;;;;;8.70;5.47;;;17.70;99.80;;;;;;6113695;23;20445;-85
2021/07/21 23:28:17;;;;;;;11.73;5.30;;;17.70;99.80;;;;;;6105766;23;20450;-85
2021/07/21 23:30:45;;;;;;;6.70;4.97;;;17.70;99.80;;;;;;6106876;23;20459;-84
2021/07/21 23:33:15;;;;;;;8.37;5.30;;;17.70;99.80;;;;;;6108790;23;20466;-84
2021/07/21 23:35:44;;;;;;;7.67;5.40;;;17.70;99.80;;;;;;6116477;23;20433;-85
2021/07/21 23:38:13;;;;;;;7.40;5.20;;;17.70;99.80;;;;;;6102563;23;20442;-85
2021/07/21 23:40:41;;;;;;;10.57;5.13;;;17.60;99.80;;;;;;6101153;23;20442;-85
2021/07/21 23:43:09;;;;;;;6.00;4.80;;;;;;;;;;6109339;23;20439;-85
2021/07/21 23:45:37;;;;;;;8.33;4.90;;;17.60;99.80;;;;;;6096897;23;20435;-85
2021/07/21 23:48:05;;;;;;;7.00;5.43;;;17.60;99.80;;;;;;6099413;23;20449;-85
2021/07/21 23:50:35;;;;;;;9.40;5.27;;;17.60;99.80;;;;;;6109113;23;20457;-85
2021/07/21 23:53:05;;;;;;;9.17;4.90;;;17.50;99.80;;;;;;6096056;23;20438;-85
2021/07/21 23:55:33;;;;;;;8.90;5.77;;;17.50;99.80;;;;;;6098394;23;20461;-85